This is the latest recevied weather packets stored in our database for station/object IK1PCD-11. If no packets are shown the sender has not sent any weather packets the latest 10 day(s).
| Time | Temp. | Humidity | Pressure | Rain* | Wind** | Luminosity | Snow |
|---|---|---|---|---|---|---|---|
| 1777704502 | 7.22° C | 74% | 1024.1 hPa | - | - | - | - |
| 1777703602 | 6.11° C | 73% | 1024 hPa | - | - | - | - |
| 1777702713 | 5° C | 73% | 1023.9 hPa | - | - | - | - |
| 1777701813 | 3.89° C | 78% | 1023.9 hPa | - | - | - | - |
| 1777700913 | 2.78° C | 80% | 1024 hPa | - | - | - | - |
| 1777700012 | 2.78° C | 82% | 1024 hPa | - | - | - | - |
| 1777699112 | 2.78° C | 80% | 1023.9 hPa | - | - | - | - |
| 1777698212 | 2.78° C | 80% | 1023.9 hPa | - | - | - | - |
| 1777695511 | 2.22° C | 84% | 1023.9 hPa | - | - | - | - |
| 1777694611 | 2.22° C | 82% | 1023.8 hPa | - | - | - | - |
| 1777693711 | 2.22° C | 81% | 1023.8 hPa | - | - | - | - |
| 1777692811 | 2.22° C | 80% | 1023.7 hPa | - | - | - | - |
| 1777691911 | 2.22° C | 80% | 1023.7 hPa | - | - | - | - |
| 1777691011 | 2.22° C | 77% | 1023.8 hPa | - | - | - | - |
| 1777690111 | 2.78° C | 74% | 1023.8 hPa | - | - | - | - |
| 1777689211 | 2.22° C | 75% | 1023.8 hPa | - | - | - | - |
| 1777688311 | 2.22° C | 75% | 1024 hPa | - | - | - | - |
| 1777687411 | 2.78° C | 73% | 1023.9 hPa | - | - | - | - |
| 1777686511 | 2.22° C | 76% | 1023.9 hPa | - | - | - | - |
| 1777685610 | 2.22° C | 77% | 1023.9 hPa | - | - | - | - |
| 1777684710 | 2.78° C | 75% | 1023.9 hPa | - | - | - | - |
| 1777683810 | 2.78° C | 74% | 1024 hPa | - | - | - | - |
| 1777682910 | 2.78° C | 74% | 1023.9 hPa | - | - | - | - |
| 1777682017 | 2.78° C | 77% | 1024 hPa | - | - | - | - |
| 1777681106 | 2.78° C | 75% | 1024.1 hPa | - | - | - | - |
* Rain since midnight (hover to see other rain measurements)
** Current wind speed in m/s (hover to see current wind gust speed)